ETGG 200020Z AUTO 27017KT 8000 // ////// 15/14 Q1017 /// ETGG 192320Z AUTO 27011KT 8000 // ////// 16/15 Q1016 /// ETGG 192220Z AUTO 27009KT 9999 // ////// 16/15 Q1016 /// ETGG 192120Z AUTO 28009KT 9999 // ////// 16/15 Q1016 /// ETGG 192020Z AUTO 29011KT 9999 // ////// 17/16 Q1016 /// ETGG 191920Z AUTO 34001KT 9999 // ////// 17/15 Q1015 /// ETGG 191820Z AUTO 33001KT 9999 // ////// 18/15 Q1014 /// ETGG 191720Z AUTO 15003KT 9999 // ////// 18/16 Q1015 /// ETGG 191620Z AUTO 14001KT 9999 // ////// 19/16 Q1016 /// ETGG 191520Z AUTO 01004KT 9999 // ////// 19/15 Q1016 /// ETGG 191420Z AUTO 08004KT 9999 // ////// 21/14 Q1016 /// ETGG 191320Z AUTO 05004KT 9999 // ////// 20/15 Q1016 /// ETGG 191220Z AUTO 04006KT 9999 // ////// 20/14 Q1016 /// ETGG 191120Z AUTO 32012KT 9999 // ////// 20/14 Q1017 /// ETGG 191020Z AUTO 34004KT 9999 // ////// 20/15 Q1017 /// ETGG 190920Z AUTO 35008KT 9999 // ////// 21/17 Q1017 /// ETGG 190820Z AUTO VRB03KT 9999 // ////// 20/16 Q1017 /// ETGG 190720Z AUTO VRB03KT 6000 // ////// 18/16 Q1017 /// ETGG 190620Z AUTO 09002KT 3200 // ////// 16/15 Q1018 /// ETGG 190520Z AUTO 15003KT 3500 // ////// 15/15 Q1018 /// ETGG 190420Z AUTO 27004KT 2000 // ////// 14/13 Q1018 /// ETGG 190320Z AUTO 26004KT 2400 // ////// 14/13 Q1018 /// ETGG 190220Z AUTO 27007KT 6000 // ////// 14/13 Q1018 /// ETGG 190120Z AUTO 26004KT 6000 // ////// 14/13 Q1018 /// ETGG 190020Z AUTO 29003KT 7000 // ////// 15/14 Q1018 /// ETGG 182320Z AUTO 12002KT 9999 // ////// 15/14 Q1018 /// ETGG 182220Z AUTO 11001KT 9999 // ////// 15/14 Q1018 /// ETGG 182120Z AUTO 29001KT 9999 // ////// 16/15 Q1019 /// ETGG 182020Z AUTO VRB01KT 9999 // ////// 16/14 Q1019 /// ETGG 181920Z AUTO VRB01KT 9999 // ////// 16/14 Q1019 /// ETGG 181820Z AUTO 14002KT 9999 // ////// 17/14 Q1019 /// ETGG 181720Z AUTO VRB03KT 9999 // ////// 18/14 Q1019 /// ETGG 181620Z AUTO 10004KT 9999 // ////// 21/15 Q1020 /// ETGG 181520Z AUTO 09003KT 9999 // ////// 20/14 Q1020 /// ETGG 181420Z AUTO 10009KT 9999 // ////// 22/14 Q1020 /// ETGG 181320Z AUTO 10007KT 9999 // ////// 21/13 Q1021 ///

METAR Messwerte "MEIERWIK" ETGG

Zurück zur Übersicht

Ortsname
Ländercode / m ü. NN
Zeit Temperatur Taupunkt Rel.
Luftfeuchte
Luftdruck:
Altimeter
NN
Station
Wind in Beaufort
(Knoten)
Sichtweite
(Meter)
Wolken
(Meter über Grund)
Wettererscheinung
MEIERWIK
DE 33
Fr 20.05. 02:20151494 %1017
1017
1013
W 5 (17)8000  
MEIERWIK
DE 33
Fr 20.05. 01:20161594 %1016
1016
1012
W 4 (11)8000  
MEIERWIK
DE 33
Fr 20.05. 00:20161594 %1016
1016
1012
W 3 (9)>= 10000  
MEIERWIK
DE 33
Do 19.05. 23:20161594 %1016
1016
1012
W 3 (9)>= 10000  
MEIERWIK
DE 33
Do 19.05. 22:20171694 %1016
1016
1012
WNW 4 (11)>= 10000  
MEIERWIK
DE 33
Do 19.05. 21:20171588 %1015
1015
1011
NNW 1 (1)>= 10000  
MEIERWIK
DE 33
Do 19.05. 20:20181583 %1014
1014
1010
NNW 1 (1)>= 10000  
MEIERWIK
DE 33
Do 19.05. 19:20181688 %1015
1015
1011
SSO 2 (3)>= 10000  
MEIERWIK
DE 33
Do 19.05. 18:20191683 %1016
1016
1012
SO 1 (1)>= 10000  
MEIERWIK
DE 33
Do 19.05. 17:20191578 %1016
1016
1012
N 2 (4)>= 10000  
MEIERWIK
DE 33
Do 19.05. 16:20211464 %1016
1016
1012
O 2 (4)>= 10000  
MEIERWIK
DE 33
Do 19.05. 15:20201573 %1016
1016
1012
NO 2 (4)>= 10000  
MEIERWIK
DE 33
Do 19.05. 14:20201468 %1016
1016
1012
NO 2 (6)>= 10000  
MEIERWIK
DE 33
Do 19.05. 13:20201468 %1017
1017
1013
NW 4 (12)>= 10000  
MEIERWIK
DE 33
Do 19.05. 12:20201573 %1017
1017
1013
NNW 2 (4)>= 10000  
MEIERWIK
DE 33
Do 19.05. 11:20211778 %1017
1017
1013
N 3 (8)>= 10000  
MEIERWIK
DE 33
Do 19.05. 10:20201678 %1017
1017
1013
Uml 2 (3)>= 10000  
MEIERWIK
DE 33
Do 19.05. 09:20181688 %1017
1017
1013
Uml 2 (3)6000  
MEIERWIK
DE 33
Do 19.05. 08:20161594 %1018
1018
1014
O 1 (2)3200  
MEIERWIK
DE 33
Do 19.05. 07:201515100 %1018
1018
1014
SSO 2 (3)3500  
MEIERWIK
DE 33
Do 19.05. 06:20141394 %1018
1018
1014
W 2 (4)2000  
MEIERWIK
DE 33
Do 19.05. 05:20141394 %1018
1018
1014
W 2 (4)2400  
MEIERWIK
DE 33
Do 19.05. 04:20141394 %1018
1018
1014
W 3 (7)6000  
MEIERWIK
DE 33
Do 19.05. 03:20141394 %1018
1018
1014
W 2 (4)6000  
MEIERWIK
DE 33
Do 19.05. 02:20151494 %1018
1018
1014
WNW 2 (3)7000  
MEIERWIK
DE 33
Do 19.05. 01:20151494 %1018
1018
1014
OSO 1 (2)>= 10000  
MEIERWIK
DE 33
Do 19.05. 00:20151494 %1018
1018
1014
OSO 1 (1)>= 10000  
MEIERWIK
DE 33
Mi 18.05. 23:20161594 %1019
1019
1015
WNW 1 (1)>= 10000  
MEIERWIK
DE 33
Mi 18.05. 22:20161488 %1019
1019
1015
Uml 1 (1)>= 10000  
MEIERWIK
DE 33
Mi 18.05. 21:20161488 %1019
1019
1015
Uml 1 (1)>= 10000  
MEIERWIK
DE 33
Mi 18.05. 20:20171482 %1019
1019
1015
SO 1 (2)>= 10000  
MEIERWIK
DE 33
Mi 18.05. 19:20181477 %1019
1019
1015
Uml 2 (3)>= 10000  
MEIERWIK
DE 33
Mi 18.05. 18:20211569 %1020
1020
1016
O 2 (4)>= 10000  
MEIERWIK
DE 33
Mi 18.05. 17:20201468 %1020
1020
1016
O 2 (3)>= 10000  
MEIERWIK
DE 33
Mi 18.05. 16:20221460 %1020
1020
1016
O 3 (9)>= 10000  
MEIERWIK
DE 33
Mi 18.05. 15:20211360 %1021
1021
1017
O 3 (7)>= 10000  

Altimeter: Einstellung am Altimeter (Höhenmesser), die Höhe 0 muss auf diesen Luftdruckwert zeigen, damit das Gerät die Stationshöhe richtig anzeigt.

NN: Luftdruck reduziert auf "Normal Null", auf Meereshöhe, dieser von der Temperatur abhängige Wert wird bisweilen unkorrekt einfach als "Luftdruck" bezeichnet. Eigentlich nur eine fiktive Größe, die es erlaubt, Stationen auf unterschiedlichen Höhen miteinander zu vergleichen.

Station: Realer Luftdruck an der Station.